sensor_id;sensor_type;location;lat;lon;timestamp;pressure;altitude;pressure_sealevel;temperature;humidity
36834;BME280;48003;52.084;5.224;2022-10-30T00:00:53;101714.0;;;18.95;69.31
36834;BME280;48003;52.084;5.224;2022-10-30T00:02:29;101718.0;;;18.77;69.87
36834;BME280;48003;52.084;5.224;2022-10-30T00:04:05;101716.0;;;18.88;69.73
36834;BME280;48003;52.084;5.224;2022-10-30T00:07:21;101715.0;;;18.95;69.52
36834;BME280;48003;52.084;5.224;2022-10-30T00:08:57;101714.0;;;19.06;69.16
36834;BME280;48003;52.084;5.224;2022-10-30T00:10:33;101716.0;;;19.09;68.89
36834;BME280;48003;52.084;5.224;2022-10-30T00:13:46;101717.0;;;19.09;68.91
36834;BME280;48003;52.084;5.224;2022-10-30T00:15:22;101721.0;;;18.98;68.75
36834;BME280;48003;52.084;5.224;2022-10-30T00:16:58;101720.0;;;18.95;69.31
36834;BME280;48003;52.084;5.224;2022-10-30T00:18:34;101715.0;;;19.02;68.98
36834;BME280;48003;52.084;5.224;2022-10-30T00:21:47;101714.0;;;18.97;68.95
36834;BME280;48003;52.084;5.224;2022-10-30T00:23:23;101711.0;;;18.81;69.55
36834;BME280;48003;52.084;5.224;2022-10-30T00:24:59;101711.0;;;18.91;69.41
36834;BME280;48003;52.084;5.224;2022-10-30T00:28:12;101713.0;;;18.89;69.41
36834;BME280;48003;52.084;5.224;2022-10-30T00:29:48;101710.0;;;19.0;69.08
36834;BME280;48003;52.084;5.224;2022-10-30T00:31:24;101711.0;;;18.91;69.27
36834;BME280;48003;52.084;5.224;2022-10-30T00:34:37;101712.0;;;18.73;69.74
36834;BME280;48003;52.084;5.224;2022-10-30T00:36:13;101716.0;;;18.8;69.66
36834;BME280;48003;52.084;5.224;2022-10-30T00:37:49;101710.0;;;18.78;69.7
36834;BME280;48003;52.084;5.224;2022-10-30T00:41:02;101705.0;;;18.72;69.91
36834;BME280;48003;52.084;5.224;2022-10-30T00:42:39;101701.0;;;18.77;69.62
36834;BME280;48003;52.084;5.224;2022-10-30T00:44:34;101705.0;;;18.77;69.48
36834;BME280;48003;52.084;5.224;2022-10-30T00:46:17;101703.0;;;18.72;69.63
36834;BME280;48003;52.084;5.224;2022-10-30T00:47:59;101705.0;;;18.59;70.0
36834;BME280;48003;52.084;5.224;2022-10-30T00:51:30;101710.0;;;18.52;70.33
36834;BME280;48003;52.084;5.224;2022-10-30T00:53:12;101716.0;;;18.46;70.66
36834;BME280;48003;52.084;5.224;2022-10-30T00:54:50;101722.0;;;18.43;70.83
36834;BME280;48003;52.084;5.224;2022-10-30T00:56:28;101720.0;;;18.34;71.09
36834;BME280;48003;52.084;5.224;2022-10-30T00:59:49;101723.0;;;18.25;71.36
36834;BME280;48003;52.084;5.224;2022-10-30T01:01:26;101721.0;;;18.27;71.47
36834;BME280;48003;52.084;5.224;2022-10-30T01:03:07;101715.0;;;18.3;71.33
36834;BME280;48003;52.084;5.224;2022-10-30T01:04:46;101713.0;;;18.48;70.72
36834;BME280;48003;52.084;5.224;2022-10-30T01:08:04;101712.0;;;18.39;70.67
36834;BME280;48003;52.084;5.224;2022-10-30T01:09:41;101708.0;;;18.41;70.5
36834;BME280;48003;52.084;5.224;2022-10-30T01:11:17;101702.0;;;18.38;70.61
36834;BME280;48003;52.084;5.224;2022-10-30T01:14:36;101702.0;;;18.48;70.31
36834;BME280;48003;52.084;5.224;2022-10-30T01:16:27;101707.0;;;18.45;70.33
36834;BME280;48003;52.084;5.224;2022-10-30T01:18:20;101715.0;;;18.41;70.58
36834;BME280;48003;52.084;5.224;2022-10-30T01:20:16;101713.0;;;18.34;70.86
36834;BME280;48003;52.084;5.224;2022-10-30T01:23:24;101710.0;;;18.34;70.66
36834;BME280;48003;52.084;5.224;2022-10-30T01:25:21;101714.0;;;18.23;70.22
36834;BME280;48003;52.084;5.224;2022-10-30T01:27:13;101714.0;;;18.13;71.11
36834;BME280;48003;52.084;5.224;2022-10-30T01:29:09;101714.0;;;18.2;71.22
36834;BME280;48003;52.084;5.224;2022-10-30T01:30:59;101719.0;;;18.09;71.5
36834;BME280;48003;52.084;5.224;2022-10-30T01:32:48;101722.0;;;18.02;71.89
36834;BME280;48003;52.084;5.224;2022-10-30T01:34:39;101724.0;;;18.02;71.95
36834;BME280;48003;52.084;5.224;2022-10-30T01:36:25;101730.0;;;18.0;71.8
36834;BME280;48003;52.084;5.224;2022-10-30T01:38:09;101737.0;;;18.0;72.05
36834;BME280;48003;52.084;5.224;2022-10-30T01:41:28;101734.0;;;18.04;71.97
36834;BME280;48003;52.084;5.224;2022-10-30T01:43:04;101738.0;;;18.18;71.47
36834;BME280;48003;52.084;5.224;2022-10-30T01:44:40;101735.0;;;18.16;71.41
36834;BME280;48003;52.084;5.224;2022-10-30T01:48:30;101734.0;;;18.09;71.66
36834;BME280;48003;52.084;5.224;2022-10-30T01:50:35;101741.0;;;18.11;71.77
36834;BME280;48003;52.084;5.224;2022-10-30T01:52:17;101738.0;;;18.2;71.42
36834;BME280;48003;52.084;5.224;2022-10-30T01:54:02;101736.0;;;18.13;71.5
36834;BME280;48003;52.084;5.224;2022-10-30T01:55:49;101735.0;;;18.14;71.56
36834;BME280;48003;52.084;5.224;2022-10-30T01:57:36;101734.0;;;18.21;71.2
36834;BME280;48003;52.084;5.224;2022-10-30T01:59:19;101740.0;;;18.27;70.99
36834;BME280;48003;52.084;5.224;2022-10-30T02:02:35;101744.0;;;18.34;70.75
36834;BME280;48003;52.084;5.224;2022-10-30T02:04:13;101741.0;;;18.28;70.61
36834;BME280;48003;52.084;5.224;2022-10-30T02:05:51;101735.0;;;18.3;70.62
36834;BME280;48003;52.084;5.224;2022-10-30T02:07:27;101735.0;;;18.27;70.55
36834;BME280;48003;52.084;5.224;2022-10-30T02:10:42;101736.0;;;18.11;71.28
36834;BME280;48003;52.084;5.224;2022-10-30T02:12:22;101738.0;;;18.2;71.14
36834;BME280;48003;52.084;5.224;2022-10-30T02:14:01;101735.0;;;18.21;71.08
36834;BME280;48003;52.084;5.224;2022-10-30T02:17:19;101741.0;;;18.16;71.11
36834;BME280;48003;52.084;5.224;2022-10-30T02:18:55;101740.0;;;18.05;71.42
36834;BME280;48003;52.084;5.224;2022-10-30T02:20:32;101740.0;;;18.0;71.7
36834;BME280;48003;52.084;5.224;2022-10-30T02:22:09;101738.0;;;17.93;71.91
36834;BME280;48003;52.084;5.224;2022-10-30T02:25:23;101742.0;;;17.81;72.05
36834;BME280;48003;52.084;5.224;2022-10-30T02:27:00;101743.0;;;17.7;72.5
36834;BME280;48003;52.084;5.224;2022-10-30T02:28:36;101744.0;;;17.71;72.49
36834;BME280;48003;52.084;5.224;2022-10-30T02:31:49;101746.0;;;17.59;72.67
36834;BME280;48003;52.084;5.224;2022-10-30T02:33:26;101739.0;;;17.5;73.16
36834;BME280;48003;52.084;5.224;2022-10-30T02:35:03;101737.0;;;17.47;73.41
36834;BME280;48003;52.084;5.224;2022-10-30T02:36:41;101741.0;;;17.38;73.66
36834;BME280;48003;52.084;5.224;2022-10-30T02:39:54;101749.0;;;17.43;73.94
36834;BME280;48003;52.084;5.224;2022-10-30T02:41:30;101743.0;;;17.48;73.83
36834;BME280;48003;52.084;5.224;2022-10-30T02:43:06;101742.0;;;17.63;73.38
36834;BME280;48003;52.084;5.224;2022-10-30T02:46:19;101742.0;;;17.59;73.36
36834;BME280;48003;52.084;5.224;2022-10-30T02:49:34;101743.0;;;17.31;73.02
36834;BME280;48003;52.084;5.224;2022-10-30T02:52:48;101745.0;;;17.2;73.47
36834;BME280;48003;52.084;5.224;2022-10-30T02:54:25;101744.0;;;17.16;74.14
36834;BME280;48003;52.084;5.224;2022-10-30T02:56:02;101740.0;;;17.16;74.38
36834;BME280;48003;52.084;5.224;2022-10-30T02:57:39;101747.0;;;17.18;74.45
36834;BME280;48003;52.084;5.224;2022-10-30T03:02:29;101744.0;;;17.09;73.86
36834;BME280;48003;52.084;5.224;2022-10-30T03:04:05;101749.0;;;17.02;73.98
36834;BME280;48003;52.084;5.224;2022-10-30T03:07:18;101748.0;;;16.96;73.92
36834;BME280;48003;52.084;5.224;2022-10-30T03:08:54;101749.0;;;16.89;74.11
36834;BME280;48003;52.084;5.224;2022-10-30T03:10:31;101748.0;;;16.86;74.55
36834;BME280;48003;52.084;5.224;2022-10-30T03:13:44;101744.0;;;16.81;74.38
36834;BME280;48003;52.084;5.224;2022-10-30T03:15:22;101746.0;;;16.78;74.44
36834;BME280;48003;52.084;5.224;2022-10-30T03:16:58;101745.0;;;16.73;74.49
36834;BME280;48003;52.084;5.224;2022-10-30T03:18:34;101746.0;;;16.7;75.08
36834;BME280;48003;52.084;5.224;2022-10-30T03:21:48;101748.0;;;16.72;75.24
36834;BME280;48003;52.084;5.224;2022-10-30T03:23:25;101751.0;;;16.7;75.39
36834;BME280;48003;52.084;5.224;2022-10-30T03:25:02;101755.0;;;16.68;75.39
36834;BME280;48003;52.084;5.224;2022-10-30T03:28:16;101752.0;;;16.68;75.67
36834;BME280;48003;52.084;5.224;2022-10-30T03:29:53;101756.0;;;16.72;75.31
36834;BME280;48003;52.084;5.224;2022-10-30T03:31:29;101758.0;;;16.66;75.19
36834;BME280;48003;52.084;5.224;2022-10-30T03:33:06;101756.0;;;16.61;75.59
36834;BME280;48003;52.084;5.224;2022-10-30T03:36:19;101763.0;;;16.61;75.28
36834;BME280;48003;52.084;5.224;2022-10-30T03:37:55;101768.0;;;16.56;75.34
36834;BME280;48003;52.084;5.224;2022-10-30T03:39:31;101767.0;;;16.53;75.61
36834;BME280;48003;52.084;5.224;2022-10-30T03:42:44;101762.0;;;16.54;75.77
36834;BME280;48003;52.084;5.224;2022-10-30T03:44:21;101765.0;;;16.5;75.33
36834;BME280;48003;52.084;5.224;2022-10-30T03:45:58;101762.0;;;16.43;75.36
36834;BME280;48003;52.084;5.224;2022-10-30T03:49:14;101759.0;;;16.45;75.33
36834;BME280;48003;52.084;5.224;2022-10-30T03:50:51;101759.0;;;16.45;75.19
36834;BME280;48003;52.084;5.224;2022-10-30T03:52:28;101759.0;;;16.39;74.91
36834;BME280;48003;52.084;5.224;2022-10-30T03:54:04;101759.0;;;16.34;75.61
36834;BME280;48003;52.084;5.224;2022-10-30T03:57:17;101755.0;;;16.39;75.53
36834;BME280;48003;52.084;5.224;2022-10-30T03:58:53;101759.0;;;16.36;75.67
36834;BME280;48003;52.084;5.224;2022-10-30T04:00:30;101755.0;;;16.34;75.59
36834;BME280;48003;52.084;5.224;2022-10-30T04:03:44;101757.0;;;16.36;75.74
36834;BME280;48003;52.084;5.224;2022-10-30T04:05:22;101751.0;;;16.36;75.97
36834;BME280;48003;52.084;5.224;2022-10-30T04:06:59;101752.0;;;16.36;75.94
36834;BME280;48003;52.084;5.224;2022-10-30T04:10:12;101752.0;;;16.36;75.75
36834;BME280;48003;52.084;5.224;2022-10-30T04:11:49;101751.0;;;16.3;75.27
36834;BME280;48003;52.084;5.224;2022-10-30T04:13:25;101752.0;;;16.23;75.08
36834;BME280;48003;52.084;5.224;2022-10-30T04:15:02;101748.0;;;16.23;75.13
36834;BME280;48003;52.084;5.224;2022-10-30T04:18:16;101745.0;;;16.2;74.8
36834;BME280;48003;52.084;5.224;2022-10-30T04:19:52;101743.0;;;16.27;75.66
36834;BME280;48003;52.084;5.224;2022-10-30T04:21:29;101748.0;;;16.31;76.16
36834;BME280;48003;52.084;5.224;2022-10-30T04:24:48;101756.0;;;16.31;76.66
36834;BME280;48003;52.084;5.224;2022-10-30T04:26:25;101755.0;;;16.34;76.72
36834;BME280;48003;52.084;5.224;2022-10-30T04:28:02;101755.0;;;16.41;76.25
36834;BME280;48003;52.084;5.224;2022-10-30T04:29:41;101755.0;;;16.34;75.49
36834;BME280;48003;52.084;5.224;2022-10-30T04:32:56;101755.0;;;16.25;75.55
36834;BME280;48003;52.084;5.224;2022-10-30T04:34:33;101757.0;;;16.2;75.74
36834;BME280;48003;52.084;5.224;2022-10-30T04:36:09;101753.0;;;16.18;76.31
36834;BME280;48003;52.084;5.224;2022-10-30T04:39:28;101755.0;;;16.25;76.22
36834;BME280;48003;52.084;5.224;2022-10-30T04:41:05;101757.0;;;16.2;76.27
36834;BME280;48003;52.084;5.224;2022-10-30T04:42:41;101759.0;;;16.23;76.69
36834;BME280;48003;52.084;5.224;2022-10-30T04:44:21;101753.0;;;16.29;76.64
36834;BME280;48003;52.084;5.224;2022-10-30T04:47:34;101758.0;;;16.34;76.34
36834;BME280;48003;52.084;5.224;2022-10-30T04:49:10;101762.0;;;16.23;75.99
36834;BME280;48003;52.084;5.224;2022-10-30T04:50:46;101761.0;;;16.23;76.87
36834;BME280;48003;52.084;5.224;2022-10-30T04:53:59;101764.0;;;16.28;76.83
36834;BME280;48003;52.084;5.224;2022-10-30T04:55:36;101760.0;;;16.37;76.28
36834;BME280;48003;52.084;5.224;2022-10-30T04:57:12;101759.0;;;16.36;76.64
36834;BME280;48003;52.084;5.224;2022-10-30T05:00:25;101762.0;;;16.34;77.0
36834;BME280;48003;52.084;5.224;2022-10-30T05:02:02;101759.0;;;16.39;76.83
36834;BME280;48003;52.084;5.224;2022-10-30T05:03:39;101761.0;;;16.38;76.28
36834;BME280;48003;52.084;5.224;2022-10-30T05:05:15;101764.0;;;16.37;76.27
36834;BME280;48003;52.084;5.224;2022-10-30T05:08:29;101768.0;;;16.34;76.14
36834;BME280;48003;52.084;5.224;2022-10-30T05:10:09;101763.0;;;16.32;76.45
36834;BME280;48003;52.084;5.224;2022-10-30T05:11:46;101760.0;;;16.3;76.33
36834;BME280;48003;52.084;5.224;2022-10-30T05:15:00;101761.0;;;16.15;75.59
36834;BME280;48003;52.084;5.224;2022-10-30T05:16:36;101766.0;;;16.06;75.87
36834;BME280;48003;52.084;5.224;2022-10-30T05:18:12;101764.0;;;16.02;76.45
36834;BME280;48003;52.084;5.224;2022-10-30T05:19:49;101762.0;;;16.02;75.97
36834;BME280;48003;52.084;5.224;2022-10-30T05:23:02;101757.0;;;15.94;75.72
36834;BME280;48003;52.084;5.224;2022-10-30T05:24:39;101752.0;;;15.94;76.19
36834;BME280;48003;52.084;5.224;2022-10-30T05:26:15;101751.0;;;15.97;76.3
36834;BME280;48003;52.084;5.224;2022-10-30T05:29:33;101751.0;;;15.94;76.49
36834;BME280;48003;52.084;5.224;2022-10-30T05:31:09;101755.0;;;15.96;76.64
36834;BME280;48003;52.084;5.224;2022-10-30T05:32:45;101753.0;;;16.0;76.66
36834;BME280;48003;52.084;5.224;2022-10-30T05:35:58;101746.0;;;16.11;76.42
36834;BME280;48003;52.084;5.224;2022-10-30T05:37:34;101740.0;;;16.13;75.88
36834;BME280;48003;52.084;5.224;2022-10-30T05:39:10;101732.0;;;16.12;75.72
36834;BME280;48003;52.084;5.224;2022-10-30T05:40:47;101728.0;;;16.15;75.55
36834;BME280;48003;52.084;5.224;2022-10-30T05:44:00;101726.0;;;16.27;75.36
36834;BME280;48003;52.084;5.224;2022-10-30T05:45:37;101735.0;;;16.23;75.66
36834;BME280;48003;52.084;5.224;2022-10-30T05:47:13;101735.0;;;16.28;75.52
36834;BME280;48003;52.084;5.224;2022-10-30T05:52:04;101732.0;;;16.4;75.47
36834;BME280;48003;52.084;5.224;2022-10-30T05:53:40;101733.0;;;16.47;75.33
36834;BME280;48003;52.084;5.224;2022-10-30T05:56:52;101730.0;;;16.52;75.09
36834;BME280;48003;52.084;5.224;2022-10-30T05:58:28;101725.0;;;16.59;75.02
36834;BME280;48003;52.084;5.224;2022-10-30T06:00:07;101728.0;;;16.45;75.28
36834;BME280;48003;52.084;5.224;2022-10-30T06:01:44;101736.0;;;16.59;75.31
36834;BME280;48003;52.084;5.224;2022-10-30T06:04:57;101736.0;;;16.56;75.36
36834;BME280;48003;52.084;5.224;2022-10-30T06:06:33;101738.0;;;16.52;75.53
36834;BME280;48003;52.084;5.224;2022-10-30T06:08:09;101742.0;;;16.48;75.67
36834;BME280;48003;52.084;5.224;2022-10-30T06:11:22;101751.0;;;16.34;76.25
36834;BME280;48003;52.084;5.224;2022-10-30T06:13:00;101753.0;;;16.25;76.58
36834;BME280;48003;52.084;5.224;2022-10-30T06:14:38;101756.0;;;16.25;76.77
36834;BME280;48003;52.084;5.224;2022-10-30T06:17:51;101757.0;;;16.21;76.86
36834;BME280;48003;52.084;5.224;2022-10-30T06:19:27;101761.0;;;16.16;76.97
36834;BME280;48003;52.084;5.224;2022-10-30T06:21:04;101761.0;;;16.11;77.14
36834;BME280;48003;52.084;5.224;2022-10-30T06:22:41;101760.0;;;16.11;76.94
36834;BME280;48003;52.084;5.224;2022-10-30T06:25:54;101759.0;;;16.04;76.33
36834;BME280;48003;52.084;5.224;2022-10-30T06:27:32;101755.0;;;15.95;76.49
36834;BME280;48003;52.084;5.224;2022-10-30T06:29:10;101755.0;;;15.88;76.61
36834;BME280;48003;52.084;5.224;2022-10-30T06:32:23;101755.0;;;15.92;76.72
36834;BME280;48003;52.084;5.224;2022-10-30T06:33:59;101761.0;;;15.99;76.87
36834;BME280;48003;52.084;5.224;2022-10-30T06:35:36;101761.0;;;16.13;76.78
36834;BME280;48003;52.084;5.224;2022-10-30T06:37:12;101762.0;;;16.11;76.94
36834;BME280;48003;52.084;5.224;2022-10-30T06:40:25;101762.0;;;16.07;77.09
36834;BME280;48003;52.084;5.224;2022-10-30T06:42:02;101768.0;;;16.04;77.09
36834;BME280;48003;52.084;5.224;2022-10-30T06:46:53;101774.0;;;15.94;77.31
36834;BME280;48003;52.084;5.224;2022-10-30T06:48:29;101773.0;;;15.99;77.41
36834;BME280;48003;52.084;5.224;2022-10-30T06:50:09;101775.0;;;15.94;77.3
36834;BME280;48003;52.084;5.224;2022-10-30T06:53:23;101778.0;;;15.89;76.56
36834;BME280;48003;52.084;5.224;2022-10-30T06:55:00;101780.0;;;15.79;76.83
36834;BME280;48003;52.084;5.224;2022-10-30T06:56:37;101774.0;;;15.77;77.19
36834;BME280;48003;52.084;5.224;2022-10-30T06:58:13;101778.0;;;15.85;77.33
36834;BME280;48003;52.084;5.224;2022-10-30T07:01:26;101775.0;;;15.83;77.55
36834;BME280;48003;52.084;5.224;2022-10-30T07:03:03;101771.0;;;15.84;77.05
36834;BME280;48003;52.084;5.224;2022-10-30T07:04:40;101767.0;;;15.92;77.11
36834;BME280;48003;52.084;5.224;2022-10-30T07:07:55;101768.0;;;15.9;77.31
36834;BME280;48003;52.084;5.224;2022-10-30T07:09:31;101763.0;;;15.82;77.02
36834;BME280;48003;52.084;5.224;2022-10-30T07:11:08;101764.0;;;15.79;77.36
36834;BME280;48003;52.084;5.224;2022-10-30T07:14:30;101770.0;;;15.75;77.55
36834;BME280;48003;52.084;5.224;2022-10-30T07:16:06;101767.0;;;15.77;78.05
36834;BME280;48003;52.084;5.224;2022-10-30T07:17:51;101777.0;;;15.87;78.03
36834;BME280;48003;52.084;5.224;2022-10-30T07:19:27;101774.0;;;15.83;78.39
36834;BME280;48003;52.084;5.224;2022-10-30T07:22:41;101777.0;;;15.85;78.58
36834;BME280;48003;52.084;5.224;2022-10-30T07:24:17;101774.0;;;15.89;78.52
36834;BME280;48003;52.084;5.224;2022-10-30T07:25:54;101766.0;;;15.94;78.36
36834;BME280;48003;52.084;5.224;2022-10-30T07:27:31;101764.0;;;15.88;77.61
36834;BME280;48003;52.084;5.224;2022-10-30T07:30:44;101762.0;;;15.83;77.78
36834;BME280;48003;52.084;5.224;2022-10-30T07:32:20;101762.0;;;15.82;78.19
36834;BME280;48003;52.084;5.224;2022-10-30T07:33:56;101762.0;;;15.91;78.25
36834;BME280;48003;52.084;5.224;2022-10-30T07:37:11;101760.0;;;15.92;78.61
36834;BME280;48003;52.084;5.224;2022-10-30T07:38:49;101755.0;;;16.02;78.56
36834;BME280;48003;52.084;5.224;2022-10-30T07:40:26;101753.0;;;16.04;78.37
36834;BME280;48003;52.084;5.224;2022-10-30T07:43:39;101755.0;;;16.07;78.45
36834;BME280;48003;52.084;5.224;2022-10-30T07:45:16;101759.0;;;16.09;78.67
36834;BME280;48003;52.084;5.224;2022-10-30T07:46:52;101756.0;;;16.21;78.52
36834;BME280;48003;52.084;5.224;2022-10-30T07:48:28;101756.0;;;16.28;78.45
36834;BME280;48003;52.084;5.224;2022-10-30T07:51:42;101752.0;;;16.37;78.56
36834;BME280;48003;52.084;5.224;2022-10-30T07:53:18;101752.0;;;16.46;78.52
36834;BME280;48003;52.084;5.224;2022-10-30T07:54:54;101748.0;;;16.57;78.3
36834;BME280;48003;52.084;5.224;2022-10-30T07:58:07;101744.0;;;16.7;78.2
36834;BME280;48003;52.084;5.224;2022-10-30T07:59:43;101747.0;;;16.7;78.19
36834;BME280;48003;52.084;5.224;2022-10-30T08:01:21;101750.0;;;16.7;78.3
36834;BME280;48003;52.084;5.224;2022-10-30T08:04:34;101749.0;;;16.79;78.24
36834;BME280;48003;52.084;5.224;2022-10-30T08:06:10;101750.0;;;16.81;78.27
36834;BME280;48003;52.084;5.224;2022-10-30T08:07:47;101755.0;;;16.86;78.41
36834;BME280;48003;52.084;5.224;2022-10-30T08:09:24;101752.0;;;16.84;78.27
36834;BME280;48003;52.084;5.224;2022-10-30T08:12:38;101750.0;;;17.0;78.05
36834;BME280;48003;52.084;5.224;2022-10-30T08:14:15;101747.0;;;16.95;77.84
36834;BME280;48003;52.084;5.224;2022-10-30T08:15:51;101745.0;;;17.34;77.13
36834;BME280;48003;52.084;5.224;2022-10-30T08:19:04;101749.0;;;17.37;76.88
36834;BME280;48003;52.084;5.224;2022-10-30T08:20:41;101752.0;;;17.41;76.99
36834;BME280;48003;52.084;5.224;2022-10-30T08:22:18;101750.0;;;17.5;76.55
36834;BME280;48003;52.084;5.224;2022-10-30T08:23:54;101756.0;;;17.16;77.74
36834;BME280;48003;52.084;5.224;2022-10-30T08:27:07;101751.0;;;17.52;76.44
36834;BME280;48003;52.084;5.224;2022-10-30T08:28:43;101748.0;;;17.5;76.66
36834;BME280;48003;52.084;5.224;2022-10-30T08:33:34;101755.0;;;17.48;77.13
36834;BME280;48003;52.084;5.224;2022-10-30T08:35:11;101753.0;;;17.84;76.09
36834;BME280;48003;52.084;5.224;2022-10-30T08:36:49;101751.0;;;17.84;76.02
36834;BME280;48003;52.084;5.224;2022-10-30T08:40:05;101751.0;;;17.96;75.8
36834;BME280;48003;52.084;5.224;2022-10-30T08:41:42;101748.0;;;17.84;76.24
36834;BME280;48003;52.084;5.224;2022-10-30T08:43:18;101750.0;;;18.11;75.41
36834;BME280;48003;52.084;5.224;2022-10-30T08:44:55;101749.0;;;18.02;75.58
36834;BME280;48003;52.084;5.224;2022-10-30T08:48:10;101755.0;;;17.97;75.89
36834;BME280;48003;52.084;5.224;2022-10-30T08:49:47;101755.0;;;18.12;75.27
36834;BME280;48003;52.084;5.224;2022-10-30T08:51:23;101759.0;;;18.0;75.61
36834;BME280;48003;52.084;5.224;2022-10-30T08:54:38;101757.0;;;18.27;74.91
36834;BME280;48003;52.084;5.224;2022-10-30T08:56:15;101761.0;;;18.25;74.69
36834;BME280;48003;52.084;5.224;2022-10-30T08:57:51;101765.0;;;18.27;74.39
36834;BME280;48003;52.084;5.224;2022-10-30T08:59:28;101764.0;;;18.36;74.41
36834;BME280;48003;52.084;5.224;2022-10-30T09:02:41;101760.0;;;18.29;74.86
36834;BME280;48003;52.084;5.224;2022-10-30T09:04:17;101764.0;;;18.11;75.11
36834;BME280;48003;52.084;5.224;2022-10-30T09:05:53;101760.0;;;18.12;75.34
36834;BME280;48003;52.084;5.224;2022-10-30T09:09:07;101749.0;;;18.11;75.67
36834;BME280;48003;52.084;5.224;2022-10-30T09:10:43;101738.0;;;18.31;74.94
36834;BME280;48003;52.084;5.224;2022-10-30T09:12:19;101736.0;;;18.63;74.11
36834;BME280;48003;52.084;5.224;2022-10-30T09:15:32;101741.0;;;18.53;74.42
36834;BME280;48003;52.084;5.224;2022-10-30T09:17:09;101732.0;;;18.59;74.19
36834;BME280;48003;52.084;5.224;2022-10-30T09:18:45;101728.0;;;18.84;73.45
36834;BME280;48003;52.084;5.224;2022-10-30T09:21:59;101733.0;;;18.86;73.31
36834;BME280;48003;52.084;5.224;2022-10-30T09:23:35;101735.0;;;18.93;73.2
36834;BME280;48003;52.084;5.224;2022-10-30T09:25:11;101740.0;;;18.91;73.84
36834;BME280;48003;52.084;5.224;2022-10-30T09:26:48;101739.0;;;19.03;73.48
36834;BME280;48003;52.084;5.224;2022-10-30T09:30:01;101743.0;;;18.98;73.59
36834;BME280;48003;52.084;5.224;2022-10-30T09:31:37;101744.0;;;18.97;73.08
36834;BME280;48003;52.084;5.224;2022-10-30T09:33:14;101750.0;;;18.7;73.49
36834;BME280;48003;52.084;5.224;2022-10-30T09:36:26;101755.0;;;19.04;72.44
36834;BME280;48003;52.084;5.224;2022-10-30T09:38:03;101756.0;;;19.18;71.72
36834;BME280;48003;52.084;5.224;2022-10-30T09:39:41;101757.0;;;19.27;71.52
36834;BME280;48003;52.084;5.224;2022-10-30T09:41:31;101755.0;;;19.25;71.94
36834;BME280;48003;52.084;5.224;2022-10-30T09:45:25;101756.0;;;19.34;71.69
36834;BME280;48003;52.084;5.224;2022-10-30T09:48:18;101763.0;;;19.52;71.12
36834;BME280;48003;52.084;5.224;2022-10-30T09:50:21;101766.0;;;19.53;71.24
36834;BME280;48003;52.084;5.224;2022-10-30T09:52:07;101764.0;;;19.41;71.98
36834;BME280;48003;52.084;5.224;2022-10-30T09:55:50;101768.0;;;19.61;71.28
36834;BME280;48003;52.084;5.224;2022-10-30T09:57:38;101762.0;;;19.5;71.97
36834;BME280;48003;52.084;5.224;2022-10-30T09:59:31;101762.0;;;19.66;71.41
36834;BME280;48003;52.084;5.224;2022-10-30T10:01:16;101760.0;;;19.68;71.3
36834;BME280;48003;52.084;5.224;2022-10-30T10:04:55;101761.0;;;19.46;72.05
36834;BME280;48003;52.084;5.224;2022-10-30T10:06:38;101762.0;;;19.78;71.41
36834;BME280;48003;52.084;5.224;2022-10-30T10:10:06;101755.0;;;19.82;71.17
36834;BME280;48003;52.084;5.224;2022-10-30T10:11:48;101759.0;;;19.66;71.87
36834;BME280;48003;52.084;5.224;2022-10-30T10:13:33;101760.0;;;19.8;71.94
36834;BME280;48003;52.084;5.224;2022-10-30T10:15:18;101760.0;;;19.95;71.23
36834;BME280;48003;52.084;5.224;2022-10-30T10:17:13;101760.0;;;20.02;70.78
36834;BME280;48003;52.084;5.224;2022-10-30T10:20:44;101761.0;;;19.77;71.14
36834;BME280;48003;52.084;5.224;2022-10-30T10:22:26;101762.0;;;19.87;71.19
36834;BME280;48003;52.084;5.224;2022-10-30T10:24:13;101760.0;;;19.96;71.25
36834;BME280;48003;52.084;5.224;2022-10-30T10:25:57;101762.0;;;20.09;70.88
36834;BME280;48003;52.084;5.224;2022-10-30T10:27:45;101762.0;;;20.25;70.67
36834;BME280;48003;52.084;5.224;2022-10-30T10:29:39;101757.0;;;20.27;70.61
36834;BME280;48003;52.084;5.224;2022-10-30T10:33:41;101755.0;;;20.36;70.36
36834;BME280;48003;52.084;5.224;2022-10-30T10:35:41;101753.0;;;20.45;70.52
36834;BME280;48003;52.084;5.224;2022-10-30T10:38:18;101755.0;;;20.6;70.03
36834;BME280;48003;52.084;5.224;2022-10-30T10:40:13;101757.0;;;20.45;70.08
36834;BME280;48003;52.084;5.224;2022-10-30T10:43:57;101752.0;;;20.65;69.41
36834;BME280;48003;52.084;5.224;2022-10-30T10:45:48;101759.0;;;20.57;69.61
36834;BME280;48003;52.084;5.224;2022-10-30T10:47:46;101759.0;;;20.76;69.05
36834;BME280;48003;52.084;5.224;2022-10-30T10:49:41;101757.0;;;20.85;69.09
36834;BME280;48003;52.084;5.224;2022-10-30T10:51:26;101755.0;;;20.97;69.0
36834;BME280;48003;52.084;5.224;2022-10-30T10:53:10;101749.0;;;20.95;69.16
36834;BME280;48003;52.084;5.224;2022-10-30T10:54:53;101745.0;;;20.87;68.73
36834;BME280;48003;52.084;5.224;2022-10-30T10:58:22;101748.0;;;21.1;68.34
36834;BME280;48003;52.084;5.224;2022-10-30T11:00:14;101752.0;;;20.92;68.69
36834;BME280;48003;52.084;5.224;2022-10-30T11:01:55;101750.0;;;21.16;67.89
36834;BME280;48003;52.084;5.224;2022-10-30T11:03:42;101748.0;;;21.01;68.3
36834;BME280;48003;52.084;5.224;2022-10-30T11:05:29;101746.0;;;21.17;68.05
36834;BME280;48003;52.084;5.224;2022-10-30T11:07:17;101742.0;;;20.98;68.38
36834;BME280;48003;52.084;5.224;2022-10-30T11:10:52;101738.0;;;21.28;67.47
36834;BME280;48003;52.084;5.224;2022-10-30T11:12:35;101731.0;;;21.5;66.37
36834;BME280;48003;52.084;5.224;2022-10-30T11:14:13;101732.0;;;21.56;66.41
36834;BME280;48003;52.084;5.224;2022-10-30T11:15:57;101725.0;;;21.54;66.92
36834;BME280;48003;52.084;5.224;2022-10-30T11:17:44;101720.0;;;21.66;67.13
36834;BME280;48003;52.084;5.224;2022-10-30T11:21:09;101714.0;;;21.64;66.64
36834;BME280;48003;52.084;5.224;2022-10-30T11:22:49;101712.0;;;21.64;67.09